Lilac (350, 352) Station Data

Red Flag Warning: No
Fire Weather Zone: 250
SDGE Region: North East
Lat/Lon: 33.277/-117.069

Observations

Time Wind Speed/Gust Temp(F) RH Fuel Moist Fuel Temp(F) Dewpt(F) Tmax(F) Tmin(F) Accum Precip 10-min Precip SL Press(mb)
4/26 2:40am 110 4 G 6 55° 63% - - 42° 55.6° 51.9° - - -
4/26 2:30am 126 5 G 6 53° 67% - - 42° 55.6° 51.9° - - -
4/26 2:20am 119 3 G 5 54° 62% - - 41° 55.6° 52.1° - - -
4/26 2:10am 58 3 G 5 55° 61% - - 42° 55.6° 52.9° - - -
4/26 2:00am 79 2 G 4 55° 62% - - 42° 55.6° 52.9° - - -
4/26 1:50am 149 1 G 2 54° 63% - - 42° 55.6° 52.9° - - -
4/26 1:40am 174 2 G 3 54° 64% - - 42° 55.6° 52.9° - - -
4/26 1:30am 199 0 G 1 55° 64% - - 43° 55.6° 52.9° - - -
4/26 1:20am 74 1 G 2 55° 61% - - 42° 55.6° 52.9° - - -
4/26 1:10am 61 2 G 4 55° 61% - - 42° 55.6° 52.9° - - -
4/26 1:00am 120 3 G 4 53° 62% - - 41° 55.6° 52.9° - - -
4/26 12:50am 158 2 G 4 55° 60% - - 41° 55.6° 53.2° - - -
4/26 12:40am 78 1 G 4 55° 59% - - 41° 55.6° 54.5° - - -
4/26 12:30am 57 3 G 4 55° 59% - - 41° 55.4° 54.5° - - -
4/26 12:20am 335 1 G 2 55° 59% - - 41° 55.4° 54.5° - - -
4/26 12:10am 218 1 G 2 55° 59% - - 41° 55.1° 54.5° - - -
4/26 12:00am 181 1 G 3 55° 59% - - 41° 66° 53.8° - - -
4/25 11:50pm 54 3 G 4 56° 57% - - 41° 66° 53.8° - - -
4/25 11:40pm 93 3 G 4 56° 56% - - 41° 66° 53.8° - - -
4/25 11:30pm 155 2 G 3 55° 58% - - 41° 66° 53.8° - - -
4/25 11:20pm 167 1 G 4 55° 58% - - 41° 66° 53.8° - - -
4/25 11:10pm 142 4 G 5 55° 58% - - 41° 66° 53.8° - - -
4/25 11:00pm 125 4 G 6 56° 56% - - 41° 66° 53.8° - - -
4/25 10:50pm 106 6 G 8 57° 53% - - 40° 66° 53.8° - - -
4/25 10:40pm 98 6 G 8 57° 53% - - 40° 66° 53.8° - - -
4/25 10:30pm 102 6 G 8 57° 52% - - 40° 66° 53.8° - - -
4/25 10:20pm 109 5 G 6 58° 50% - - 39° 66° 53.8° - - -
4/25 10:10pm 101 3 G 4 58° 50% - - 39° 66° 53.8° - - -
4/25 10:00pm 68 3 G 4 57° 51% - - 39° 66° 53.8° - - -
4/25 9:50pm 82 3 G 4 58° 51% - - 39° 66° 53.8° - - -
4/25 9:40pm 108 3 G 4 58° 50% - - 39° 66° 53.8° - - -
4/25 9:30pm 222 1 G 3 58° 50% - - 39° 66° 53.8° - - -
4/25 9:20pm 118 1 G 3 58° 49% - - 39° 66° 53.8° - - -
4/25 9:10pm 106 3 G 5 58° 50% - - 39° 66° 53.8° - - -
4/25 9:00pm 112 1 G 4 58° 49% - - 39° 66° 53.8° - - -
4/25 8:50pm 330 1 G 1 59° 47% - - 38° 66° 53.8° - - -
4/25 8:40pm 50 1 G 3 59° 45% - - 38° 66° 53.8° - - -
4/25 8:30pm 98 1 G 2 59° 46% - - 38° 66° 53.8° - - -
4/25 8:20pm 0 0 G 0 58° 48% - - 39° 66° 53.8° - - -
4/25 8:10pm 284 1 G 1 59° 47% - - 39° 66° 53.8° - - -
4/25 8:00pm 289 2 G 2 59° 46% - - 38° 66° 53.8° - - -
4/25 7:50pm 297 1 G 2 59° 45% - - 38° 66° 53.8° - - -
4/25 7:40pm 232 2 G 3 59° 45% - - 38° 66° 53.8° - - -
4/25 7:30pm 229 3 G 5 59° 45% - - 38° 66° 53.8° - - -
4/25 7:20pm 251 4 G 6 58° 56% - - 42° 64.3° 52.1° - - -
4/25 7:10pm 233 3 G 5 60° 46% - - 39° 66° 53.8° - - -
4/25 7:00pm 224 4 G 7 60° 46% - - 39° 66° 53.8° - - -
4/25 6:50pm 233 5 G 7 61° 45% - - 40° 66° 53.8° - - -
4/25 6:40pm 253 5 G 9 61° 44% - - 39° 66° 53.8° - - -
4/25 6:30pm 250 6 G 10 61° 44% - - 40° 66° 53.8° - - -
4/25 6:20pm 252 7 G 11 61° 46% - - 40° 66° 53.8° - - -
4/25 6:10pm 256 8 G 11 62° 47% - - 41° 66° 53.8° - - -
4/25 6:00pm 255 7 G 11 62° 50% - - 43° 66° 53.8° - - -
4/25 5:50pm 234 7 G 11 62° 52% - - 44° 66° 53.8° - - -
4/25 5:40pm 246 7 G 10 62° 52% - - 44° 66° 53.8° - - -
4/25 5:30pm 257 7 G 11 63° 51% - - 44° 66° 53.8° - - -
4/25 5:20pm 247 8 G 12 63° 50% - - 44° 66° 53.8° - - -
4/25 5:10pm 258 8 G 13 64° 51% - - 45° 66° 53.8° - - -
4/25 5:00pm 251 8 G 11 64° 52% - - 46° 66° 53.8° - - -
4/25 4:50pm 251 8 G 11 64° 52% - - 46° 66° 53.8° - - -
4/25 4:40pm 257 7 G 13 65° 52% - - 47° 66° 53.8° - - -
4/25 4:30pm 276 7 G 11 65° 50% - - 46° 66° 53.8° - - -
4/25 4:20pm 275 7 G 12 64° 51% - - 46° 66° 53.8° - - -
4/25 4:10pm 266 6 G 11 64° 51% - - 46° 66° 53.8° - - -
4/25 4:00pm 272 8 G 13 63° 53% - - 46° 66° 53.8° - - -
4/25 3:50pm 268 8 G 13 63° 54% - - 46° 66° 53.8° - - -
4/25 3:40pm 269 9 G 15 63° 54% - - 46° 66° 53.8° - - -
4/25 3:30pm 271 8 G 15 63° 54% - - 46° 66° 53.8° - - -
4/25 3:20pm 279 9 G 14 64° 53% - - 46° 66° 53.8° - - -
4/25 3:10pm 276 10 G 15 63° 53% - - 46° 66° 53.8° - - -
4/25 3:00pm 272 8 G 14 64° 51% - - 46° 66° 53.8° - - -
4/25 2:50pm 259 9 G 14 64° 53% - - 46° 66° 53.8° - - -
4/25 2:40pm 255 9 G 15 64° 53% - - 46° 66° 53.8° - - -
4/25 2:30pm 253 8 G 12 64° 53% - - 46° 66° 53.8° - - -
4/25 2:20pm 242 8 G 12 64° 53% - - 46° 66° 53.8° - - -
4/25 2:10pm 257 8 G 15 64° 51% - - 46° 66° 53.8° - - -
4/25 2:00pm 265 8 G 13 65° 51% - - 46° 66° 53.8° - - -
4/25 1:50pm 267 8 G 13 64° 53% - - 46° 65.2° 53.8° - - -
4/25 1:40pm 281 9 G 15 64° 53% - - 47° 65.2° 53.8° - - -
4/25 1:30pm 266 10 G 17 64° 53% - - 46° 65.2° 53.8° - - -
4/25 1:20pm 272 9 G 17 64° 52% - - 46° 65.2° 53.8° - - -
4/25 1:10pm 277 8 G 15 64° 52% - - 46° 65.2° 53.8° - - -
4/25 1:00pm 282 9 G 16 64° 52% - - 47° 65.2° 53.8° - - -
4/25 12:50pm 269 10 G 16 63° 55% - - 47° 64.4° 53.8° - - -
4/25 12:40pm 269 9 G 14 63° 56% - - 47° 64.4° 53.8° - - -
4/25 12:30pm 263 6 G 12 64° 54% - - 47° 64.4° 53.8° - - -
4/25 12:20pm 255 7 G 13 64° 55% - - 47° 64.4° 53.8° - - -
4/25 12:10pm 256 8 G 16 63° 57% - - 47° 63.9° 53.8° - - -
4/25 12:00pm 259 9 G 13 62° 58% - - 48° 63.4° 53.8° - - -
4/25 11:50am 280 8 G 13 63° 57% - - 47° 63.4° 53.8° - - -
4/25 11:40am 266 8 G 13 62° 58% - - 47° 63.4° 53.8° - - -
4/25 11:30am 264 6 G 13 63° 54% - - 46° 63.4° 53.8° - - -
4/25 11:20am 254 6 G 10 63° 53% - - 46° 63.4° 53.8° - - -
4/25 11:10am 245 4 G 8 62° 54% - - 46° 63.2° 53.8° - - -
4/25 11:00am 266 4 G 7 62° 54% - - 45° 62.8° 53.8° - - -
4/25 10:50am 260 3 G 6 62° 53% - - 44° 62.8° 53.8° - - -
4/25 10:40am 276 3 G 8 61° 54% - - 45° 62.8° 53.8° - - -
4/25 10:30am 252 5 G 11 62° 53% - - 44° 62.8° 53.8° - - -
4/25 10:20am 213 4 G 7 62° 53% - - 45° 62.8° 53.8° - - -
4/25 10:10am 225 4 G 9 60° 57% - - 45° 62.1° 53.8° - - -
4/25 10:00am 249 4 G 8 61° 57% - - 46° 62.1° 53.8° - - -
4/25 9:50am 240 4 G 9 60° 57% - - 45° 61.8° 53.8° - - -
4/25 9:40am 235 6 G 9 60° 61% - - 47° 61.8° 53.8° - - -
4/25 9:30am 207 5 G 12 61° 60% - - 47° 61.8° 53.8° - - -
4/25 9:20am 249 4 G 8 59° 63% - - 47° 60.9° 53.8° - - -
4/25 9:10am 182 5 G 9 60° 63% - - 48° 60.9° 53.8° - - -
4/25 9:00am 171 6 G 10 59° 67% - - 48° 60.1° 53.8° - - -
4/25 8:50am 165 5 G 7 58° 69% - - 48° 58.5° 53.8° - - -
4/25 8:40am 167 6 G 9 58° 71% - - 49° 58.5° 53.8° - - -
4/25 8:30am 192 4 G 7 57° 72% - - 48° 58° 53.8° - - -
4/25 8:20am 187 5 G 8 58° 72% - - 49° 58° 53.8° - - -
4/25 8:10am 167 5 G 10 58° 72% - - 49° 58° 53.8° - - -
4/25 8:00am 171 5 G 10 57° 75% - - 50° 57.8° 53.8° - - -
4/25 7:50am 164 6 G 10 57° 83% - - 52° 56.9° 53.8° - - -
4/25 7:40am 166 6 G 11 56° 100% - - 56° 56.7° 53.8° - - -
4/25 7:30am 155 5 G 8 55° 100% - - 55° 55.9° 53.8° - - -
4/25 7:20am 147 4 G 8 55° 100% - - 55° 55.5° 53.8° - - -
4/25 7:10am 150 4 G 7 54° 100% - - 54° 55.5° 53.8° - - -
4/25 7:00am 145 4 G 7 54° 100% - - 54° 55.5° 53.8° - - -
4/25 6:50am 151 5 G 7 54° 100% - - 54° 55.5° 53.8° - - -
4/25 6:40am 135 6 G 9 54° 100% - - 54° 55.5° 53.8° - - -
4/25 6:30am 142 7 G 9 54° 100% - - 54° 55.5° 53.9° - - -
4/25 6:20am 157 7 G 10 54° 100% - - 54° 55.5° 54° - - -
4/25 6:10am 154 6 G 9 54° 100% - - 54° 55.5° 54° - - -
4/25 6:00am 161 5 G 7 54° 100% - - 54° 55.5° 54° - - -
4/25 5:50am 154 6 G 9 54° 100% - - 54° 55.5° 54° - - -
4/25 5:40am 152 6 G 8 54° 100% - - 54° 55.5° 54° - - -
4/25 5:30am 158 5 G 9 54° 100% - - 54° 55.5° 54° - - -
4/25 5:20am 158 5 G 8 54° 100% - - 54° 55.5° 54° - - -
4/25 5:10am 159 5 G 8 54° 100% - - 54° 55.5° 54° - - -
4/25 5:00am 159 4 G 8 54° 100% - - 54° 55.5° 54° - - -
4/25 4:50am 162 7 G 10 54° 100% - - 54° 55.5° 54° - - -
4/25 4:40am 161 5 G 8 54° 100% - - 54° 55.5° 54° - - -
4/25 4:30am 156 7 G 10 54° 100% - - 54° 55.5° 54° - - -
4/25 4:20am 155 8 G 12 54° 100% - - 54° 55.5° 54° - - -
4/25 4:10am 150 7 G 12 54° 100% - - 54° 55.5° 54.3° - - -
4/25 4:00am 153 6 G 8 55° 100% - - 55° 55.5° 54.3° - - -
4/25 3:50am 151 5 G 8 54° 100% - - 54° 55.5° 54.3° - - -
4/25 3:40am 163 5 G 12 55° 100% - - 55° 55.5° 54.3° - - -
4/25 3:30am 171 5 G 8 55° 100% - - 55° 55.5° 54.3° - - -
4/25 3:20am 167 5 G 9 55° 100% - - 55° 55.5° 54.3° - - -
4/25 3:10am 165 7 G 10 55° 100% - - 55° 55.5° 54.3° - - -
4/25 3:00am 154 5 G 8 55° 100% - - 55° 55.5° 54.3° - - -
4/25 2:50am 145 4 G 6 55° 100% - - 55° 55.5° 54.3° - - -
4/25 2:40am 148 4 G 6 55° 100% - - 55° 55.5° 54.5° - - -
4/25 2:30am 162 4 G 5 55° 100% - - 55° 55.5° 54.5° - - -
4/25 2:20am 176 4 G 7 55° 100% - - 55° 55.5° 54.5° - - -
4/25 2:10am 172 6 G 9 55° 100% - - 55° 55.5° 54.5° - - -
4/25 2:00am 174 4 G 8 55° 100% - - 55° 55.5° 54.5° - - -
4/25 1:50am 175 4 G 7 55° 100% - - 55° 55.5° 54.5° - - -
4/25 1:40am 176 4 G 8 55° 100% - - 55° 55.5° 54.5° - - -
4/25 1:30am 165 6 G 10 55° 100% - - 55° 55.5° 54.6° - - -
4/25 1:20am 153 6 G 9 55° 100% - - 55° 55.5° 54.6° - - -
4/25 1:10am 153 6 G 10 55° 100% - - 55° 55.5° 54.6° - - -
4/25 1:00am 159 5 G 7 55° 100% - - 55° 55.5° 54.6° - - -
4/25 12:50am 157 6 G 9 55° 100% - - 55° 55.5° 54.6° - - -
4/25 12:40am 151 6 G 9 55° 100% - - 55° 55.5° 54.6° - - -
4/25 12:30am 157 8 G 11 55° 100% - - 55° 55.5° 54.7° - - -
4/25 12:20am 161 7 G 11 55° 100% - - 55° 55.5° 54.9° - - -
4/25 12:10am 173 5 G 9 55° 100% - - 55° 55.5° 55.1° - - -
4/25 12:00am 166 6 G 10 55° 100% - - 55° 67.3° 54.2° - - -
4/24 11:50pm 153 5 G 8 55° 100% - - 55° 67.3° 54.2° - - -
4/24 11:40pm 151 6 G 10 55° 100% - - 55° 67.3° 54.2° - - -
4/24 11:30pm 134 5 G 8 55° 100% - - 55° 67.3° 54.2° - - -
4/24 11:20pm 25 1 G 3 55° 100% - - 55° 67.3° 54.6° - - -
4/24 11:10pm 332 2 G 3 55° 100% - - 55° 67.3° 54.6° - - -
4/24 11:00pm 336 2 G 3 55° 100% - - 55° 67.3° 54.6° - - -
4/24 10:50pm 292 2 G 3 55° 100% - - 55° 67.3° 54.6° - - -
4/24 10:40pm 222 2 G 4 55° 86% - - 51° 67.3° 54.6° - - -
4/24 10:30pm 212 2 G 5 55° 79% - - 49° 67.3° 54.6° - - -
4/24 10:20pm 179 4 G 8 56° 78% - - 49° 67.3° 54.6° - - -
4/24 10:10pm 182 3 G 7 56° 78% - - 49° 67.3° 54.6° - - -
4/24 10:00pm 167 5 G 7 56° 77% - - 49° 67.3° 54.6° - - -
4/24 9:50pm 176 3 G 6 56° 75% - - 48° 67.3° 54.6° - - -
4/24 9:40pm 195 3 G 5 56° 74% - - 48° 67.3° 54.6° - - -
4/24 9:30pm 181 4 G 9 57° 74% - - 49° 67.3° 54.6° - - -
4/24 9:20pm 192 3 G 7 57° 75% - - 49° 67.3° 54.6° - - -
4/24 9:10pm 215 4 G 7 57° 75% - - 49° 67.3° 54.6° - - -
4/24 9:00pm 221 4 G 6 57° 74% - - 49° 67.3° 54.6° - - -
4/24 8:50pm 210 3 G 5 58° 72% - - 49° 67.3° 54.6° - - -
4/24 8:40pm 204 2 G 4 58° 70% - - 48° 67.3° 54.6° - - -
4/24 8:30pm 201 3 G 5 57° 70% - - 48° 67.3° 54.6° - - -
4/24 8:20pm 185 3 G 5 57° 71% - - 48° 67.3° 54.6° - - -
4/24 8:10pm 202 3 G 5 58° 70% - - 48° 67.3° 54.6° - - -
4/24 8:00pm 185 3 G 5 58° 69% - - 48° 67.3° 54.6° - - -
4/24 7:50pm 206 4 G 6 58° 69% - - 48° 67.3° 54.6° - - -
4/24 7:40pm 222 4 G 6 58° 69% - - 48° 67.3° 54.6° - - -
4/24 7:30pm 230 4 G 7 58° 70% - - 48° 67.3° 54.6° - - -
4/24 7:20pm 227 4 G 6 59° 69% - - 49° 67.3° 54.6° - - -
4/24 7:10pm 239 6 G 10 59° 69% - - 49° 67.3° 54.6° - - -
4/24 7:00pm 223 5 G 10 59° 69% - - 49° 67.3° 54.6° - - -
4/24 6:50pm 218 6 G 11 59° 67% - - 48° 67.3° 54.6° - - -
4/24 6:40pm 228 6 G 12 60° 67% - - 49° 67.3° 54.6° - - -
4/24 6:30pm 232 7 G 13 60° 66% - - 49° 67.3° 54.6° - - -
4/24 6:20pm 227 7 G 12 61° 64% - - 49° 67.3° 54.6° - - -
4/24 6:10pm 237 7 G 12 61° 65% - - 49° 67.3° 54.6° - - -
4/24 6:00pm 227 6 G 12 62° 62% - - 49° 67.3° 54.6° - - -